sensor_id;sensor_type;location;lat;lon;timestamp;P1;durP1;ratioP1;P2;durP2;ratioP2
21402;SDS011;10862;51.886;17.078;2023-02-11T00:01:48;45.50;;;29.20;;
21402;SDS011;10862;51.886;17.078;2023-02-11T00:04:14;49.63;;;29.73;;
21402;SDS011;10862;51.886;17.078;2023-02-11T00:06:39;50.00;;;27.27;;
21402;SDS011;10862;51.886;17.078;2023-02-11T00:09:05;47.43;;;29.40;;
21402;SDS011;10862;51.886;17.078;2023-02-11T00:11:31;45.47;;;29.03;;
21402;SDS011;10862;51.886;17.078;2023-02-11T00:13:58;41.77;;;24.60;;
21402;SDS011;10862;51.886;17.078;2023-02-11T00:16:27;44.37;;;29.07;;
21402;SDS011;10862;51.886;17.078;2023-02-11T00:18:53;52.07;;;30.77;;
21402;SDS011;10862;51.886;17.078;2023-02-11T00:21:21;44.83;;;21.83;;
21402;SDS011;10862;51.886;17.078;2023-02-11T00:23:49;29.93;;;16.73;;
21402;SDS011;10862;51.886;17.078;2023-02-11T00:26:19;40.63;;;24.33;;
21402;SDS011;10862;51.886;17.078;2023-02-11T00:28:50;39.80;;;21.07;;
21402;SDS011;10862;51.886;17.078;2023-02-11T00:31:16;40.47;;;23.90;;
21402;SDS011;10862;51.886;17.078;2023-02-11T00:33:43;42.93;;;22.53;;
21402;SDS011;10862;51.886;17.078;2023-02-11T00:36:11;36.17;;;21.47;;
21402;SDS011;10862;51.886;17.078;2023-02-11T00:38:48;45.23;;;24.27;;
21402;SDS011;10862;51.886;17.078;2023-02-11T00:41:15;44.50;;;23.30;;
21402;SDS011;10862;51.886;17.078;2023-02-11T00:43:41;47.03;;;25.17;;
21402;SDS011;10862;51.886;17.078;2023-02-11T00:46:07;46.03;;;24.37;;
21402;SDS011;10862;51.886;17.078;2023-02-11T00:48:34;42.63;;;22.70;;
21402;SDS011;10862;51.886;17.078;2023-02-11T00:51:00;48.97;;;22.93;;
21402;SDS011;10862;51.886;17.078;2023-02-11T00:53:28;43.43;;;23.83;;
21402;SDS011;10862;51.886;17.078;2023-02-11T00:55:54;49.20;;;24.60;;
21402;SDS011;10862;51.886;17.078;2023-02-11T00:58:19;39.73;;;23.53;;
21402;SDS011;10862;51.886;17.078;2023-02-11T01:00:46;35.70;;;19.83;;
21402;SDS011;10862;51.886;17.078;2023-02-11T01:03:12;42.23;;;24.13;;
21402;SDS011;10862;51.886;17.078;2023-02-11T01:05:38;41.43;;;23.60;;
21402;SDS011;10862;51.886;17.078;2023-02-11T01:08:03;38.53;;;23.77;;
21402;SDS011;10862;51.886;17.078;2023-02-11T01:10:29;46.23;;;24.80;;
21402;SDS011;10862;51.886;17.078;2023-02-11T01:12:55;42.30;;;24.93;;
21402;SDS011;10862;51.886;17.078;2023-02-11T01:15:21;50.53;;;28.13;;
21402;SDS011;10862;51.886;17.078;2023-02-11T01:17:47;40.50;;;26.27;;
21402;SDS011;10862;51.886;17.078;2023-02-11T01:20:14;33.60;;;25.63;;
21402;SDS011;10862;51.886;17.078;2023-02-11T01:22:41;43.77;;;26.37;;
21402;SDS011;10862;51.886;17.078;2023-02-11T01:25:08;39.53;;;25.90;;
21402;SDS011;10862;51.886;17.078;2023-02-11T01:27:33;41.67;;;27.70;;
21402;SDS011;10862;51.886;17.078;2023-02-11T01:29:59;43.23;;;27.10;;
21402;SDS011;10862;51.886;17.078;2023-02-11T01:32:25;45.80;;;28.30;;
21402;SDS011;10862;51.886;17.078;2023-02-11T01:34:51;53.73;;;29.87;;
21402;SDS011;10862;51.886;17.078;2023-02-11T01:37:17;42.73;;;28.10;;
21402;SDS011;10862;51.886;17.078;2023-02-11T01:39:42;46.13;;;29.20;;
21402;SDS011;10862;51.886;17.078;2023-02-11T01:42:14;44.47;;;25.33;;
21402;SDS011;10862;51.886;17.078;2023-02-11T01:44:41;44.67;;;28.33;;
21402;SDS011;10862;51.886;17.078;2023-02-11T01:47:07;50.10;;;29.33;;
21402;SDS011;10862;51.886;17.078;2023-02-11T01:49:33;45.90;;;31.10;;
21402;SDS011;10862;51.886;17.078;2023-02-11T01:54:42;45.40;;;31.03;;
21402;SDS011;10862;51.886;17.078;2023-02-11T01:57:30;55.53;;;31.90;;
21402;SDS011;10862;51.886;17.078;2023-02-11T02:00:16;52.40;;;32.77;;
21402;SDS011;10862;51.886;17.078;2023-02-11T02:03:06;39.57;;;28.57;;
21402;SDS011;10862;51.886;17.078;2023-02-11T02:08:39;48.17;;;34.77;;
21402;SDS011;10862;51.886;17.078;2023-02-11T02:11:27;48.70;;;32.77;;
21402;SDS011;10862;51.886;17.078;2023-02-11T02:13:53;35.47;;;27.80;;
21402;SDS011;10862;51.886;17.078;2023-02-11T02:16:20;52.13;;;33.67;;
21402;SDS011;10862;51.886;17.078;2023-02-11T02:40:46;46.17;;;26.10;;
21402;SDS011;10862;51.886;17.078;2023-02-11T02:43:17;43.23;;;24.80;;
21402;SDS011;10862;51.886;17.078;2023-02-11T02:45:44;48.83;;;25.43;;
21402;SDS011;10862;51.886;17.078;2023-02-11T02:48:26;41.50;;;24.73;;
21402;SDS011;10862;51.886;17.078;2023-02-11T02:59:02;42.93;;;24.07;;
21402;SDS011;10862;51.886;17.078;2023-02-11T03:04:41;37.47;;;22.57;;
21402;SDS011;10862;51.886;17.078;2023-02-11T03:09:53;48.27;;;28.60;;
21402;SDS011;10862;51.886;17.078;2023-02-11T03:12:21;44.60;;;28.90;;
21402;SDS011;10862;51.886;17.078;2023-02-11T03:14:50;47.57;;;32.53;;
21402;SDS011;10862;51.886;17.078;2023-02-11T03:17:16;48.97;;;27.90;;
21402;SDS011;10862;51.886;17.078;2023-02-11T03:19:45;52.27;;;29.90;;
21402;SDS011;10862;51.886;17.078;2023-02-11T03:22:16;51.50;;;28.70;;
21402;SDS011;10862;51.886;17.078;2023-02-11T03:24:47;46.07;;;29.90;;
21402;SDS011;10862;51.886;17.078;2023-02-11T03:29:58;51.50;;;29.73;;
21402;SDS011;10862;51.886;17.078;2023-02-11T03:32:30;44.83;;;29.13;;
21402;SDS011;10862;51.886;17.078;2023-02-11T03:35:06;46.97;;;31.90;;
21402;SDS011;10862;51.886;17.078;2023-02-11T03:37:50;45.57;;;31.20;;
21402;SDS011;10862;51.886;17.078;2023-02-11T03:40:26;42.77;;;30.70;;
21402;SDS011;10862;51.886;17.078;2023-02-11T03:43:15;41.90;;;29.77;;
21402;SDS011;10862;51.886;17.078;2023-02-11T03:45:44;48.80;;;31.63;;
21402;SDS011;10862;51.886;17.078;2023-02-11T03:48:15;44.50;;;32.10;;
21402;SDS011;10862;51.886;17.078;2023-02-11T03:50:49;50.63;;;30.67;;
21402;SDS011;10862;51.886;17.078;2023-02-11T03:53:16;47.23;;;31.47;;
21402;SDS011;10862;51.886;17.078;2023-02-11T03:55:44;46.57;;;32.10;;
21402;SDS011;10862;51.886;17.078;2023-02-11T03:58:13;41.40;;;31.83;;
21402;SDS011;10862;51.886;17.078;2023-02-11T04:00:39;43.70;;;22.60;;
21402;SDS011;10862;51.886;17.078;2023-02-11T04:03:06;45.17;;;24.93;;
21402;SDS011;10862;51.886;17.078;2023-02-11T04:05:33;45.10;;;27.23;;
21402;SDS011;10862;51.886;17.078;2023-02-11T04:07:59;44.20;;;26.67;;
21402;SDS011;10862;51.886;17.078;2023-02-11T04:10:25;38.37;;;26.03;;
21402;SDS011;10862;51.886;17.078;2023-02-11T04:12:50;51.77;;;31.47;;
21402;SDS011;10862;51.886;17.078;2023-02-11T04:15:16;38.43;;;23.13;;
21402;SDS011;10862;51.886;17.078;2023-02-11T04:17:42;46.07;;;23.40;;
21402;SDS011;10862;51.886;17.078;2023-02-11T04:20:08;44.20;;;24.90;;
21402;SDS011;10862;51.886;17.078;2023-02-11T04:22:35;44.90;;;25.43;;
21402;SDS011;10862;51.886;17.078;2023-02-11T04:25:01;45.90;;;26.63;;
21402;SDS011;10862;51.886;17.078;2023-02-11T04:27:27;43.33;;;25.60;;
21402;SDS011;10862;51.886;17.078;2023-02-11T04:29:53;39.77;;;24.80;;
21402;SDS011;10862;51.886;17.078;2023-02-11T04:32:19;39.33;;;24.50;;
21402;SDS011;10862;51.886;17.078;2023-02-11T04:34:45;36.97;;;24.80;;
21402;SDS011;10862;51.886;17.078;2023-02-11T04:37:11;48.77;;;27.57;;
21402;SDS011;10862;51.886;17.078;2023-02-11T04:39:37;45.03;;;25.27;;
21402;SDS011;10862;51.886;17.078;2023-02-11T04:42:02;44.27;;;24.37;;
21402;SDS011;10862;51.886;17.078;2023-02-11T04:44:28;44.57;;;25.77;;
21402;SDS011;10862;51.886;17.078;2023-02-11T04:46:54;41.90;;;26.43;;
21402;SDS011;10862;51.886;17.078;2023-02-11T04:49:20;46.50;;;25.03;;
21402;SDS011;10862;51.886;17.078;2023-02-11T04:51:45;38.13;;;24.17;;
21402;SDS011;10862;51.886;17.078;2023-02-11T04:54:11;44.57;;;24.27;;
21402;SDS011;10862;51.886;17.078;2023-02-11T04:56:37;47.60;;;25.27;;
21402;SDS011;10862;51.886;17.078;2023-02-11T04:59:04;41.43;;;23.30;;
21402;SDS011;10862;51.886;17.078;2023-02-11T05:01:30;41.80;;;26.43;;
21402;SDS011;10862;51.886;17.078;2023-02-11T05:03:56;48.73;;;25.93;;
21402;SDS011;10862;51.886;17.078;2023-02-11T05:06:22;43.30;;;22.77;;
21402;SDS011;10862;51.886;17.078;2023-02-11T05:08:48;49.63;;;29.67;;
21402;SDS011;10862;51.886;17.078;2023-02-11T05:11:15;40.27;;;25.37;;
21402;SDS011;10862;51.886;17.078;2023-02-11T05:13:43;44.90;;;25.73;;
21402;SDS011;10862;51.886;17.078;2023-02-11T05:16:09;45.73;;;25.17;;
21402;SDS011;10862;51.886;17.078;2023-02-11T05:18:39;59.37;;;27.97;;
21402;SDS011;10862;51.886;17.078;2023-02-11T05:21:06;50.37;;;27.50;;
21402;SDS011;10862;51.886;17.078;2023-02-11T05:23:33;53.57;;;26.40;;
21402;SDS011;10862;51.886;17.078;2023-02-11T05:25:59;47.83;;;25.73;;
21402;SDS011;10862;51.886;17.078;2023-02-11T05:28:26;52.93;;;25.80;;
21402;SDS011;10862;51.886;17.078;2023-02-11T05:30:51;48.17;;;26.33;;
21402;SDS011;10862;51.886;17.078;2023-02-11T05:33:17;47.70;;;24.77;;
21402;SDS011;10862;51.886;17.078;2023-02-11T05:35:43;54.27;;;27.07;;
21402;SDS011;10862;51.886;17.078;2023-02-11T05:38:08;50.00;;;26.00;;
21402;SDS011;10862;51.886;17.078;2023-02-11T05:40:34;60.50;;;28.43;;
21402;SDS011;10862;51.886;17.078;2023-02-11T05:43:00;53.23;;;31.43;;
21402;SDS011;10862;51.886;17.078;2023-02-11T05:45:26;51.27;;;27.87;;
21402;SDS011;10862;51.886;17.078;2023-02-11T05:47:52;44.53;;;27.10;;
21402;SDS011;10862;51.886;17.078;2023-02-11T05:50:18;55.80;;;29.67;;
21402;SDS011;10862;51.886;17.078;2023-02-11T05:52:43;49.97;;;27.60;;
21402;SDS011;10862;51.886;17.078;2023-02-11T05:55:09;56.73;;;31.57;;
21402;SDS011;10862;51.886;17.078;2023-02-11T05:57:35;52.80;;;31.20;;
21402;SDS011;10862;51.886;17.078;2023-02-11T06:00:01;47.30;;;28.37;;
21402;SDS011;10862;51.886;17.078;2023-02-11T06:02:28;55.67;;;29.93;;
21402;SDS011;10862;51.886;17.078;2023-02-11T06:04:54;53.70;;;29.00;;
21402;SDS011;10862;51.886;17.078;2023-02-11T06:07:19;52.93;;;28.50;;
21402;SDS011;10862;51.886;17.078;2023-02-11T06:09:45;52.83;;;27.43;;
21402;SDS011;10862;51.886;17.078;2023-02-11T06:12:11;42.00;;;24.57;;
21402;SDS011;10862;51.886;17.078;2023-02-11T06:14:36;50.47;;;28.83;;
21402;SDS011;10862;51.886;17.078;2023-02-11T06:17:02;55.27;;;29.27;;
21402;SDS011;10862;51.886;17.078;2023-02-11T06:19:28;47.23;;;28.90;;
21402;SDS011;10862;51.886;17.078;2023-02-11T06:21:55;57.37;;;30.77;;
21402;SDS011;10862;51.886;17.078;2023-02-11T06:24:21;60.23;;;30.40;;
21402;SDS011;10862;51.886;17.078;2023-02-11T06:26:47;58.07;;;30.80;;
21402;SDS011;10862;51.886;17.078;2023-02-11T06:29:13;71.60;;;36.60;;
21402;SDS011;10862;51.886;17.078;2023-02-11T06:31:38;73.50;;;34.47;;
21402;SDS011;10862;51.886;17.078;2023-02-11T06:34:05;51.17;;;31.27;;
21402;SDS011;10862;51.886;17.078;2023-02-11T06:36:32;58.67;;;31.20;;
21402;SDS011;10862;51.886;17.078;2023-02-11T06:38:58;65.77;;;35.23;;
21402;SDS011;10862;51.886;17.078;2023-02-11T06:41:24;82.30;;;36.20;;
21402;SDS011;10862;51.886;17.078;2023-02-11T06:43:50;68.33;;;37.23;;
21402;SDS011;10862;51.886;17.078;2023-02-11T06:46:17;78.20;;;38.27;;
21402;SDS011;10862;51.886;17.078;2023-02-11T06:48:42;63.73;;;29.83;;
21402;SDS011;10862;51.886;17.078;2023-02-11T06:51:09;62.40;;;30.17;;
21402;SDS011;10862;51.886;17.078;2023-02-11T06:53:38;61.90;;;30.63;;
21402;SDS011;10862;51.886;17.078;2023-02-11T06:56:06;56.33;;;25.93;;
21402;SDS011;10862;51.886;17.078;2023-02-11T06:58:34;59.00;;;27.20;;
21402;SDS011;10862;51.886;17.078;2023-02-11T07:01:03;57.60;;;23.93;;
21402;SDS011;10862;51.886;17.078;2023-02-11T07:03:33;56.53;;;26.43;;
21402;SDS011;10862;51.886;17.078;2023-02-11T07:06:01;50.90;;;25.53;;
21402;SDS011;10862;51.886;17.078;2023-02-11T07:08:28;66.63;;;28.57;;
21402;SDS011;10862;51.886;17.078;2023-02-11T07:10:54;59.53;;;29.87;;
21402;SDS011;10862;51.886;17.078;2023-02-11T07:13:20;70.20;;;31.23;;
21402;SDS011;10862;51.886;17.078;2023-02-11T07:15:45;64.37;;;30.03;;
21402;SDS011;10862;51.886;17.078;2023-02-11T07:18:11;51.07;;;23.07;;
21402;SDS011;10862;51.886;17.078;2023-02-11T07:20:37;56.33;;;28.30;;
21402;SDS011;10862;51.886;17.078;2023-02-11T07:23:03;66.10;;;33.60;;
21402;SDS011;10862;51.886;17.078;2023-02-11T07:25:29;63.57;;;27.70;;
21402;SDS011;10862;51.886;17.078;2023-02-11T07:27:55;64.53;;;29.97;;
21402;SDS011;10862;51.886;17.078;2023-02-11T07:30:21;56.83;;;28.33;;
21402;SDS011;10862;51.886;17.078;2023-02-11T07:32:47;49.03;;;26.73;;
21402;SDS011;10862;51.886;17.078;2023-02-11T07:35:13;65.57;;;32.00;;
21402;SDS011;10862;51.886;17.078;2023-02-11T07:37:39;66.87;;;32.73;;
21402;SDS011;10862;51.886;17.078;2023-02-11T07:40:06;75.27;;;32.90;;
21402;SDS011;10862;51.886;17.078;2023-02-11T07:42:35;62.03;;;27.73;;
21402;SDS011;10862;51.886;17.078;2023-02-11T07:45:01;63.27;;;31.03;;
21402;SDS011;10862;51.886;17.078;2023-02-11T07:47:27;54.13;;;30.43;;
21402;SDS011;10862;51.886;17.078;2023-02-11T07:49:52;73.17;;;34.03;;
21402;SDS011;10862;51.886;17.078;2023-02-11T07:52:18;76.27;;;41.23;;
21402;SDS011;10862;51.886;17.078;2023-02-11T07:54:44;70.53;;;32.20;;
21402;SDS011;10862;51.886;17.078;2023-02-11T07:57:10;72.17;;;38.47;;
21402;SDS011;10862;51.886;17.078;2023-02-11T07:59:35;79.87;;;36.73;;
21402;SDS011;10862;51.886;17.078;2023-02-11T08:02:01;76.87;;;37.80;;
21402;SDS011;10862;51.886;17.078;2023-02-11T08:04:28;70.70;;;35.27;;
21402;SDS011;10862;51.886;17.078;2023-02-11T08:06:53;84.87;;;37.87;;
21402;SDS011;10862;51.886;17.078;2023-02-11T08:09:21;80.13;;;37.97;;
21402;SDS011;10862;51.886;17.078;2023-02-11T08:11:47;79.23;;;40.37;;
21402;SDS011;10862;51.886;17.078;2023-02-11T08:14:13;91.43;;;41.93;;
21402;SDS011;10862;51.886;17.078;2023-02-11T08:16:39;69.00;;;34.47;;
21402;SDS011;10862;51.886;17.078;2023-02-11T08:19:07;82.67;;;43.47;;
21402;SDS011;10862;51.886;17.078;2023-02-11T08:21:37;81.83;;;36.83;;
21402;SDS011;10862;51.886;17.078;2023-02-11T08:24:07;102.83;;;42.83;;
21402;SDS011;10862;51.886;17.078;2023-02-11T08:26:33;91.13;;;43.10;;
21402;SDS011;10862;51.886;17.078;2023-02-11T08:29:00;88.00;;;43.53;;
21402;SDS011;10862;51.886;17.078;2023-02-11T08:31:28;80.70;;;40.03;;
21402;SDS011;10862;51.886;17.078;2023-02-11T08:33:57;77.47;;;40.27;;
21402;SDS011;10862;51.886;17.078;2023-02-11T08:36:33;87.97;;;44.80;;
21402;SDS011;10862;51.886;17.078;2023-02-11T08:39:01;72.50;;;37.23;;
21402;SDS011;10862;51.886;17.078;2023-02-11T08:41:32;59.60;;;31.60;;
21402;SDS011;10862;51.886;17.078;2023-02-11T08:43:59;76.60;;;35.67;;
21402;SDS011;10862;51.886;17.078;2023-02-11T08:46:28;73.50;;;38.93;;
21402;SDS011;10862;51.886;17.078;2023-02-11T08:48:54;63.27;;;32.77;;
21402;SDS011;10862;51.886;17.078;2023-02-11T08:51:24;69.73;;;34.17;;
21402;SDS011;10862;51.886;17.078;2023-02-11T08:53:55;72.90;;;35.27;;
21402;SDS011;10862;51.886;17.078;2023-02-11T08:56:21;67.50;;;36.13;;
21402;SDS011;10862;51.886;17.078;2023-02-11T08:58:48;72.00;;;34.27;;
21402;SDS011;10862;51.886;17.078;2023-02-11T09:01:19;64.30;;;35.50;;
21402;SDS011;10862;51.886;17.078;2023-02-11T09:03:49;72.70;;;35.90;;
21402;SDS011;10862;51.886;17.078;2023-02-11T09:06:15;74.50;;;38.23;;
21402;SDS011;10862;51.886;17.078;2023-02-11T09:08:43;70.70;;;34.67;;
21402;SDS011;10862;51.886;17.078;2023-02-11T09:11:10;98.63;;;42.60;;
21402;SDS011;10862;51.886;17.078;2023-02-11T09:13:37;73.20;;;35.93;;
21402;SDS011;10862;51.886;17.078;2023-02-11T09:16:05;67.30;;;34.10;;
21402;SDS011;10862;51.886;17.078;2023-02-11T09:18:32;70.10;;;35.50;;
21402;SDS011;10862;51.886;17.078;2023-02-11T09:21:04;91.33;;;40.03;;
21402;SDS011;10862;51.886;17.078;2023-02-11T09:23:33;94.80;;;39.90;;
21402;SDS011;10862;51.886;17.078;2023-02-11T09:26:05;64.57;;;33.90;;
21402;SDS011;10862;51.886;17.078;2023-02-11T09:28:32;87.43;;;39.17;;
21402;SDS011;10862;51.886;17.078;2023-02-11T09:30:58;96.60;;;39.47;;
21402;SDS011;10862;51.886;17.078;2023-02-11T09:33:28;85.63;;;36.03;;
21402;SDS011;10862;51.886;17.078;2023-02-11T09:35:54;87.03;;;40.73;;
21402;SDS011;10862;51.886;17.078;2023-02-11T09:38:19;89.53;;;40.13;;
21402;SDS011;10862;51.886;17.078;2023-02-11T09:40:45;71.50;;;36.63;;
21402;SDS011;10862;51.886;17.078;2023-02-11T09:43:14;101.53;;;47.53;;
21402;SDS011;10862;51.886;17.078;2023-02-11T09:45:45;73.27;;;35.23;;
21402;SDS011;10862;51.886;17.078;2023-02-11T09:50:40;86.10;;;39.33;;
21402;SDS011;10862;51.886;17.078;2023-02-11T09:53:13;84.03;;;37.60;;
21402;SDS011;10862;51.886;17.078;2023-02-11T09:55:42;79.07;;;35.17;;
21402;SDS011;10862;51.886;17.078;2023-02-11T09:58:13;77.03;;;37.60;;
21402;SDS011;10862;51.886;17.078;2023-02-11T10:01:04;89.77;;;40.53;;
21402;SDS011;10862;51.886;17.078;2023-02-11T10:03:37;86.83;;;42.30;;
21402;SDS011;10862;51.886;17.078;2023-02-11T10:14:40;90.47;;;40.93;;
21402;SDS011;10862;51.886;17.078;2023-02-11T10:20:32;92.77;;;42.47;;
21402;SDS011;10862;51.886;17.078;2023-02-11T10:23:14;85.53;;;42.63;;
21402;SDS011;10862;51.886;17.078;2023-02-11T10:25:50;88.80;;;40.70;;
21402;SDS011;10862;51.886;17.078;2023-02-11T10:28:22;67.43;;;33.47;;
21402;SDS011;10862;51.886;17.078;2023-02-11T10:30:57;98.10;;;47.37;;
21402;SDS011;10862;51.886;17.078;2023-02-11T10:33:45;97.87;;;47.63;;
21402;SDS011;10862;51.886;17.078;2023-02-11T10:36:27;82.07;;;43.93;;
21402;SDS011;10862;51.886;17.078;2023-02-11T10:39:17;78.53;;;40.27;;
21402;SDS011;10862;51.886;17.078;2023-02-11T10:41:45;98.13;;;40.93;;
21402;SDS011;10862;51.886;17.078;2023-02-11T10:44:27;179.30;;;87.47;;
21402;SDS011;10862;51.886;17.078;2023-02-11T10:47:18;110.53;;;53.73;;
21402;SDS011;10862;51.886;17.078;2023-02-11T10:49:46;91.10;;;42.23;;
21402;SDS011;10862;51.886;17.078;2023-02-11T10:54:38;226.90;;;85.00;;
21402;SDS011;10862;51.886;17.078;2023-02-11T10:57:04;133.37;;;59.53;;
21402;SDS011;10862;51.886;17.078;2023-02-11T10:59:35;120.00;;;55.07;;
21402;SDS011;10862;51.886;17.078;2023-02-11T11:02:20;90.43;;;45.97;;
21402;SDS011;10862;51.886;17.078;2023-02-11T11:04:49;115.50;;;59.47;;
21402;SDS011;10862;51.886;17.078;2023-02-11T11:07:22;81.47;;;40.13;;
21402;SDS011;10862;51.886;17.078;2023-02-11T11:09:59;83.70;;;42.07;;
21402;SDS011;10862;51.886;17.078;2023-02-11T11:15:24;43.47;;;24.97;;
21402;SDS011;10862;51.886;17.078;2023-02-11T11:18:34;84.77;;;41.60;;
21402;SDS011;10862;51.886;17.078;2023-02-11T11:23:24;81.67;;;40.47;;
21402;SDS011;10862;51.886;17.078;2023-02-11T11:25:59;95.60;;;43.13;;
21402;SDS011;10862;51.886;17.078;2023-02-11T11:28:29;108.37;;;45.60;;
21402;SDS011;10862;51.886;17.078;2023-02-11T11:31:00;82.60;;;37.17;;
21402;SDS011;10862;51.886;17.078;2023-02-11T11:33:28;99.77;;;42.80;;
21402;SDS011;10862;51.886;17.078;2023-02-11T11:35:58;78.23;;;37.73;;
21402;SDS011;10862;51.886;17.078;2023-02-11T11:38:33;79.67;;;37.00;;
21402;SDS011;10862;51.886;17.078;2023-02-11T11:41:16;78.90;;;39.20;;
21402;SDS011;10862;51.886;17.078;2023-02-11T11:46:27;66.50;;;30.33;;
21402;SDS011;10862;51.886;17.078;2023-02-11T11:49:16;68.70;;;32.13;;
21402;SDS011;10862;51.886;17.078;2023-02-11T11:54:54;85.07;;;43.80;;
21402;SDS011;10862;51.886;17.078;2023-02-11T11:57:28;59.90;;;28.90;;
21402;SDS011;10862;51.886;17.078;2023-02-11T12:00:02;67.73;;;31.47;;
21402;SDS011;10862;51.886;17.078;2023-02-11T12:07:52;62.97;;;34.07;;
21402;SDS011;10862;51.886;17.078;2023-02-11T12:13:21;59.87;;;30.27;;
21402;SDS011;10862;51.886;17.078;2023-02-11T12:16:22;89.90;;;39.63;;
21402;SDS011;10862;51.886;17.078;2023-02-11T12:22:02;45.63;;;24.03;;
21402;SDS011;10862;51.886;17.078;2023-02-11T12:30:06;61.47;;;31.73;;
21402;SDS011;10862;51.886;17.078;2023-02-11T12:32:45;45.20;;;25.40;;
21402;SDS011;10862;51.886;17.078;2023-02-11T12:43:40;67.23;;;35.00;;
21402;SDS011;10862;51.886;17.078;2023-02-11T12:46:50;76.07;;;36.03;;
21402;SDS011;10862;51.886;17.078;2023-02-11T12:54:59;85.93;;;37.37;;
21402;SDS011;10862;51.886;17.078;2023-02-11T12:57:33;67.87;;;28.03;;
21402;SDS011;10862;51.886;17.078;2023-02-11T13:02:43;46.70;;;24.20;;
21402;SDS011;10862;51.886;17.078;2023-02-11T13:05:22;102.50;;;40.87;;
21402;SDS011;10862;51.886;17.078;2023-02-11T13:08:15;74.30;;;37.87;;
21402;SDS011;10862;51.886;17.078;2023-02-11T13:11:16;58.30;;;28.80;;
21402;SDS011;10862;51.886;17.078;2023-02-11T13:13:51;70.43;;;29.97;;
21402;SDS011;10862;51.886;17.078;2023-02-11T13:16:29;65.80;;;30.33;;
21402;SDS011;10862;51.886;17.078;2023-02-11T13:30:17;48.60;;;25.00;;
21402;SDS011;10862;51.886;17.078;2023-02-11T13:33:38;65.77;;;31.00;;
21402;SDS011;10862;51.886;17.078;2023-02-11T13:36:23;71.47;;;34.00;;
21402;SDS011;10862;51.886;17.078;2023-02-11T13:38:30;51.43;;;26.73;;
21402;SDS011;10862;51.886;17.078;2023-02-11T13:43:42;66.93;;;35.97;;
21402;SDS011;10862;51.886;17.078;2023-02-11T13:46:11;100.13;;;44.50;;
21402;SDS011;10862;51.886;17.078;2023-02-11T13:48:44;79.10;;;40.50;;
21402;SDS011;10862;51.886;17.078;2023-02-11T13:51:14;83.17;;;42.33;;
21402;SDS011;10862;51.886;17.078;2023-02-11T13:53:46;77.43;;;40.33;;
21402;SDS011;10862;51.886;17.078;2023-02-11T13:58:54;72.30;;;39.27;;
21402;SDS011;10862;51.886;17.078;2023-02-11T14:04:27;108.63;;;50.07;;
21402;SDS011;10862;51.886;17.078;2023-02-11T14:07:29;69.80;;;41.67;;
21402;SDS011;10862;51.886;17.078;2023-02-11T14:26:32;88.40;;;43.57;;
21402;SDS011;10862;51.886;17.078;2023-02-11T14:29:20;79.20;;;41.27;;
21402;SDS011;10862;51.886;17.078;2023-02-11T14:35:31;90.97;;;46.53;;
21402;SDS011;10862;51.886;17.078;2023-02-11T14:43:20;57.40;;;37.93;;
21402;SDS011;10862;51.886;17.078;2023-02-11T14:45:54;66.33;;;37.03;;
21402;SDS011;10862;51.886;17.078;2023-02-11T14:48:28;82.97;;;48.20;;
21402;SDS011;10862;51.886;17.078;2023-02-11T14:53:27;88.10;;;48.23;;
21402;SDS011;10862;51.886;17.078;2023-02-11T14:55:56;126.87;;;64.47;;
21402;SDS011;10862;51.886;17.078;2023-02-11T14:58:23;133.67;;;61.47;;
21402;SDS011;10862;51.886;17.078;2023-02-11T15:06:00;86.47;;;49.47;;
21402;SDS011;10862;51.886;17.078;2023-02-11T15:08:49;77.97;;;43.60;;
21402;SDS011;10862;51.886;17.078;2023-02-11T15:11:21;73.37;;;42.03;;
21402;SDS011;10862;51.886;17.078;2023-02-11T15:13:49;64.80;;;42.23;;
21402;SDS011;10862;51.886;17.078;2023-02-11T15:16:17;74.33;;;48.23;;
21402;SDS011;10862;51.886;17.078;2023-02-11T15:18:53;71.93;;;41.73;;
21402;SDS011;10862;51.886;17.078;2023-02-11T15:21:23;89.27;;;46.67;;
21402;SDS011;10862;51.886;17.078;2023-02-11T15:23:56;63.70;;;39.37;;
21402;SDS011;10862;51.886;17.078;2023-02-11T15:26:28;72.73;;;42.80;;
21402;SDS011;10862;51.886;17.078;2023-02-11T15:28:54;53.20;;;35.10;;
21402;SDS011;10862;51.886;17.078;2023-02-11T15:31:23;58.53;;;36.27;;
21402;SDS011;10862;51.886;17.078;2023-02-11T15:33:51;35.47;;;28.70;;
21402;SDS011;10862;51.886;17.078;2023-02-11T15:36:18;58.80;;;38.87;;
21402;SDS011;10862;51.886;17.078;2023-02-11T15:41:40;54.17;;;31.03;;
21402;SDS011;10862;51.886;17.078;2023-02-11T15:44:24;57.47;;;31.83;;
21402;SDS011;10862;51.886;17.078;2023-02-11T15:46:54;54.27;;;27.57;;
21402;SDS011;10862;51.886;17.078;2023-02-11T15:49:20;71.23;;;36.60;;
21402;SDS011;10862;51.886;17.078;2023-02-11T15:51:47;56.43;;;33.03;;
21402;SDS011;10862;51.886;17.078;2023-02-11T15:54:20;38.77;;;24.13;;
21402;SDS011;10862;51.886;17.078;2023-02-11T15:56:52;30.53;;;24.67;;
21402;SDS011;10862;51.886;17.078;2023-02-11T16:02:06;61.87;;;29.10;;
21402;SDS011;10862;51.886;17.078;2023-02-11T16:04:51;54.30;;;30.90;;
21402;SDS011;10862;51.886;17.078;2023-02-11T16:12:49;88.10;;;44.77;;
21402;SDS011;10862;51.886;17.078;2023-02-11T16:18:13;43.63;;;23.33;;
21402;SDS011;10862;51.886;17.078;2023-02-11T16:20:53;82.50;;;34.43;;
21402;SDS011;10862;51.886;17.078;2023-02-11T16:23:24;158.77;;;54.70;;
21402;SDS011;10862;51.886;17.078;2023-02-11T16:25:58;146.02;;;55.60;;
21402;SDS011;10862;51.886;17.078;2023-02-11T16:28:25;93.13;;;39.07;;
21402;SDS011;10862;51.886;17.078;2023-02-11T16:30:52;56.70;;;31.97;;
21402;SDS011;10862;51.886;17.078;2023-02-11T16:33:19;93.40;;;47.73;;
21402;SDS011;10862;51.886;17.078;2023-02-11T16:35:45;81.37;;;43.47;;
21402;SDS011;10862;51.886;17.078;2023-02-11T16:38:11;73.00;;;38.50;;
21402;SDS011;10862;51.886;17.078;2023-02-11T16:40:38;88.53;;;43.97;;
21402;SDS011;10862;51.886;17.078;2023-02-11T16:43:03;57.53;;;32.60;;
21402;SDS011;10862;51.886;17.078;2023-02-11T16:45:29;91.30;;;45.37;;
21402;SDS011;10862;51.886;17.078;2023-02-11T16:47:55;89.00;;;47.23;;
21402;SDS011;10862;51.886;17.078;2023-02-11T16:50:22;73.70;;;36.50;;
21402;SDS011;10862;51.886;17.078;2023-02-11T16:52:49;84.07;;;41.20;;
21402;SDS011;10862;51.886;17.078;2023-02-11T16:55:16;76.10;;;39.00;;
21402;SDS011;10862;51.886;17.078;2023-02-11T16:57:42;78.27;;;42.60;;
21402;SDS011;10862;51.886;17.078;2023-02-11T17:00:09;102.40;;;47.83;;
21402;SDS011;10862;51.886;17.078;2023-02-11T17:02:39;81.93;;;41.47;;
21402;SDS011;10862;51.886;17.078;2023-02-11T17:05:06;61.57;;;35.47;;
21402;SDS011;10862;51.886;17.078;2023-02-11T17:07:39;39.23;;;25.57;;
21402;SDS011;10862;51.886;17.078;2023-02-11T17:10:12;63.53;;;38.40;;
21402;SDS011;10862;51.886;17.078;2023-02-11T17:12:42;60.53;;;38.27;;
21402;SDS011;10862;51.886;17.078;2023-02-11T17:15:09;70.37;;;41.53;;
21402;SDS011;10862;51.886;17.078;2023-02-11T17:17:35;55.63;;;35.33;;